sensor_id;sensor_type;location;lat;lon;timestamp;temperature;humidity
22532;DHT22;11432;46.924;7.114;2023-04-25T00:02:03;9.60;99.90
22532;DHT22;11432;46.924;7.114;2023-04-25T00:04:29;9.70;99.90
22532;DHT22;11432;46.924;7.114;2023-04-25T00:06:55;9.60;99.90
22532;DHT22;11432;46.924;7.114;2023-04-25T00:09:21;9.70;99.90
22532;DHT22;11432;46.924;7.114;2023-04-25T00:11:47;9.70;1.00
22532;DHT22;11432;46.924;7.114;2023-04-25T00:14:13;9.70;1.00
22532;DHT22;11432;46.924;7.114;2023-04-25T00:16:39;9.60;1.00
22532;DHT22;11432;46.924;7.114;2023-04-25T00:19:06;9.50;1.00
22532;DHT22;11432;46.924;7.114;2023-04-25T00:21:33;9.60;1.00
22532;DHT22;11432;46.924;7.114;2023-04-25T00:23:59;9.50;1.00
22532;DHT22;11432;46.924;7.114;2023-04-25T00:26:25;9.50;1.00
22532;DHT22;11432;46.924;7.114;2023-04-25T00:28:51;9.50;1.00
22532;DHT22;11432;46.924;7.114;2023-04-25T00:31:17;9.50;1.00
22532;DHT22;11432;46.924;7.114;2023-04-25T00:33:42;9.40;1.00
22532;DHT22;11432;46.924;7.114;2023-04-25T00:36:08;9.40;1.00
22532;DHT22;11432;46.924;7.114;2023-04-25T00:38:34;9.50;1.00
22532;DHT22;11432;46.924;7.114;2023-04-25T00:41:00;9.50;1.00
22532;DHT22;11432;46.924;7.114;2023-04-25T00:43:30;9.40;1.00
22532;DHT22;11432;46.924;7.114;2023-04-25T00:45:58;9.50;1.00
22532;DHT22;11432;46.924;7.114;2023-04-25T00:48:24;9.50;1.00
22532;DHT22;11432;46.924;7.114;2023-04-25T00:50:55;9.40;1.00
22532;DHT22;11432;46.924;7.114;2023-04-25T00:53:22;9.50;1.00
22532;DHT22;11432;46.924;7.114;2023-04-25T00:55:49;9.50;1.00
22532;DHT22;11432;46.924;7.114;2023-04-25T00:58:20;9.50;99.90
22532;DHT22;11432;46.924;7.114;2023-04-25T01:00:47;9.50;99.90
22532;DHT22;11432;46.924;7.114;2023-04-25T01:03:14;9.50;1.00
22532;DHT22;11432;46.924;7.114;2023-04-25T01:05:43;9.50;1.00
22532;DHT22;11432;46.924;7.114;2023-04-25T01:08:09;9.50;1.00
22532;DHT22;11432;46.924;7.114;2023-04-25T01:10:35;9.50;1.00
22532;DHT22;11432;46.924;7.114;2023-04-25T01:13:01;9.50;1.00
22532;DHT22;11432;46.924;7.114;2023-04-25T01:15:27;9.50;1.00
22532;DHT22;11432;46.924;7.114;2023-04-25T01:17:53;9.50;1.00
22532;DHT22;11432;46.924;7.114;2023-04-25T01:20:21;9.40;1.00
22532;DHT22;11432;46.924;7.114;2023-04-25T01:22:49;9.40;1.00
22532;DHT22;11432;46.924;7.114;2023-04-25T01:25:15;9.40;1.00
22532;DHT22;11432;46.924;7.114;2023-04-25T01:27:41;9.40;1.00
22532;DHT22;11432;46.924;7.114;2023-04-25T01:30:07;9.30;1.00
22532;DHT22;11432;46.924;7.114;2023-04-25T01:32:33;9.30;1.00
22532;DHT22;11432;46.924;7.114;2023-04-25T01:35:10;9.30;1.00
22532;DHT22;11432;46.924;7.114;2023-04-25T01:37:37;9.30;1.00
22532;DHT22;11432;46.924;7.114;2023-04-25T01:40:04;9.20;1.00
22532;DHT22;11432;46.924;7.114;2023-04-25T01:42:32;9.20;1.00
22532;DHT22;11432;46.924;7.114;2023-04-25T01:44:58;9.20;1.00
22532;DHT22;11432;46.924;7.114;2023-04-25T01:47:23;9.20;1.00
22532;DHT22;11432;46.924;7.114;2023-04-25T01:49:49;9.20;1.00
22532;DHT22;11432;46.924;7.114;2023-04-25T01:52:15;9.10;1.00
22532;DHT22;11432;46.924;7.114;2023-04-25T01:54:41;9.10;1.00
22532;DHT22;11432;46.924;7.114;2023-04-25T01:57:12;9.10;1.00
22532;DHT22;11432;46.924;7.114;2023-04-25T01:59:38;9.10;1.00
22532;DHT22;11432;46.924;7.114;2023-04-25T02:02:03;9.00;1.00
22532;DHT22;11432;46.924;7.114;2023-04-25T02:04:30;9.00;1.00
22532;DHT22;11432;46.924;7.114;2023-04-25T02:06:56;8.90;1.00
22532;DHT22;11432;46.924;7.114;2023-04-25T02:09:22;8.90;1.00
22532;DHT22;11432;46.924;7.114;2023-04-25T02:11:47;8.90;1.00
22532;DHT22;11432;46.924;7.114;2023-04-25T02:14:13;8.90;1.00
22532;DHT22;11432;46.924;7.114;2023-04-25T02:16:39;8.80;1.00
22532;DHT22;11432;46.924;7.114;2023-04-25T02:19:05;8.80;1.00
22532;DHT22;11432;46.924;7.114;2023-04-25T02:21:31;8.80;1.00
22532;DHT22;11432;46.924;7.114;2023-04-25T02:23:57;8.80;1.00
22532;DHT22;11432;46.924;7.114;2023-04-25T02:26:23;8.70;1.00
22532;DHT22;11432;46.924;7.114;2023-04-25T02:28:52;8.70;1.00
22532;DHT22;11432;46.924;7.114;2023-04-25T02:31:17;8.70;1.00
22532;DHT22;11432;46.924;7.114;2023-04-25T02:33:43;8.60;1.00
22532;DHT22;11432;46.924;7.114;2023-04-25T02:36:09;8.60;1.00
22532;DHT22;11432;46.924;7.114;2023-04-25T02:38:35;8.60;1.00
22532;DHT22;11432;46.924;7.114;2023-04-25T02:41:00;8.50;1.00
22532;DHT22;11432;46.924;7.114;2023-04-25T02:43:26;8.50;1.00
22532;DHT22;11432;46.924;7.114;2023-04-25T02:45:51;8.50;1.00
22532;DHT22;11432;46.924;7.114;2023-04-25T02:48:17;8.40;1.00
22532;DHT22;11432;46.924;7.114;2023-04-25T02:50:43;8.30;1.00
22532;DHT22;11432;46.924;7.114;2023-04-25T02:53:09;8.20;1.00
22532;DHT22;11432;46.924;7.114;2023-04-25T02:55:34;8.10;1.00
22532;DHT22;11432;46.924;7.114;2023-04-25T02:58:00;8.10;1.00
22532;DHT22;11432;46.924;7.114;2023-04-25T03:00:25;8.00;1.00
22532;DHT22;11432;46.924;7.114;2023-04-25T03:02:51;8.00;1.00
22532;DHT22;11432;46.924;7.114;2023-04-25T03:05:17;7.90;1.00
22532;DHT22;11432;46.924;7.114;2023-04-25T03:07:43;7.90;1.00
22532;DHT22;11432;46.924;7.114;2023-04-25T03:10:10;7.80;1.00
22532;DHT22;11432;46.924;7.114;2023-04-25T03:12:36;7.80;1.00
22532;DHT22;11432;46.924;7.114;2023-04-25T03:15:02;7.80;1.00
22532;DHT22;11432;46.924;7.114;2023-04-25T03:17:28;7.80;1.00
22532;DHT22;11432;46.924;7.114;2023-04-25T03:19:54;7.70;1.00
22532;DHT22;11432;46.924;7.114;2023-04-25T03:22:19;7.70;1.00
22532;DHT22;11432;46.924;7.114;2023-04-25T03:24:45;7.70;1.00
22532;DHT22;11432;46.924;7.114;2023-04-25T03:27:10;7.70;1.00
22532;DHT22;11432;46.924;7.114;2023-04-25T03:29:36;7.60;1.00
22532;DHT22;11432;46.924;7.114;2023-04-25T03:32:02;7.70;1.00
22532;DHT22;11432;46.924;7.114;2023-04-25T03:34:27;7.70;1.00
22532;DHT22;11432;46.924;7.114;2023-04-25T03:36:53;7.60;1.00
22532;DHT22;11432;46.924;7.114;2023-04-25T03:39:19;7.60;1.00
22532;DHT22;11432;46.924;7.114;2023-04-25T03:41:44;7.60;1.00
22532;DHT22;11432;46.924;7.114;2023-04-25T03:44:10;7.60;1.00
22532;DHT22;11432;46.924;7.114;2023-04-25T03:46:35;7.70;1.00
22532;DHT22;11432;46.924;7.114;2023-04-25T03:49:01;7.60;1.00
22532;DHT22;11432;46.924;7.114;2023-04-25T03:51:26;7.70;1.00
22532;DHT22;11432;46.924;7.114;2023-04-25T03:53:52;7.60;1.00
22532;DHT22;11432;46.924;7.114;2023-04-25T03:56:18;7.60;1.00
22532;DHT22;11432;46.924;7.114;2023-04-25T03:58:44;7.60;1.00
22532;DHT22;11432;46.924;7.114;2023-04-25T04:01:10;7.60;1.00
22532;DHT22;11432;46.924;7.114;2023-04-25T04:03:36;7.60;1.00
22532;DHT22;11432;46.924;7.114;2023-04-25T04:06:03;7.50;1.00
22532;DHT22;11432;46.924;7.114;2023-04-25T04:08:30;7.50;1.00
22532;DHT22;11432;46.924;7.114;2023-04-25T04:10:56;7.50;1.00
22532;DHT22;11432;46.924;7.114;2023-04-25T04:13:22;7.50;1.00
22532;DHT22;11432;46.924;7.114;2023-04-25T04:15:48;7.50;1.00
22532;DHT22;11432;46.924;7.114;2023-04-25T04:18:13;7.40;1.00
22532;DHT22;11432;46.924;7.114;2023-04-25T04:20:39;7.40;5.60
22532;DHT22;11432;46.924;7.114;2023-04-25T04:23:05;7.30;28.50
22532;DHT22;11432;46.924;7.114;2023-04-25T04:25:31;7.30;26.00
22532;DHT22;11432;46.924;7.114;2023-04-25T04:27:56;7.30;72.90
22532;DHT22;11432;46.924;7.114;2023-04-25T04:30:23;7.30;87.90
22532;DHT22;11432;46.924;7.114;2023-04-25T04:32:50;7.30;99.90
22532;DHT22;11432;46.924;7.114;2023-04-25T04:35:16;7.20;92.30
22532;DHT22;11432;46.924;7.114;2023-04-25T04:37:41;7.20;92.50
22532;DHT22;11432;46.924;7.114;2023-04-25T04:40:07;7.20;99.90
22532;DHT22;11432;46.924;7.114;2023-04-25T04:42:33;7.20;99.90
22532;DHT22;11432;46.924;7.114;2023-04-25T04:44:59;7.10;97.20
22532;DHT22;11432;46.924;7.114;2023-04-25T04:47:27;7.20;99.90
22532;DHT22;11432;46.924;7.114;2023-04-25T04:49:56;7.30;99.90
22532;DHT22;11432;46.924;7.114;2023-04-25T04:52:21;7.20;99.90
22532;DHT22;11432;46.924;7.114;2023-04-25T04:54:47;7.30;99.90
22532;DHT22;11432;46.924;7.114;2023-04-25T04:57:12;7.30;99.90
22532;DHT22;11432;46.924;7.114;2023-04-25T04:59:38;7.30;99.90
22532;DHT22;11432;46.924;7.114;2023-04-25T05:02:04;7.30;99.90
22532;DHT22;11432;46.924;7.114;2023-04-25T05:04:29;7.20;99.90
22532;DHT22;11432;46.924;7.114;2023-04-25T05:06:55;7.10;99.90
22532;DHT22;11432;46.924;7.114;2023-04-25T05:09:20;7.00;99.90
22532;DHT22;11432;46.924;7.114;2023-04-25T05:11:46;7.00;99.90
22532;DHT22;11432;46.924;7.114;2023-04-25T05:14:11;7.00;99.90
22532;DHT22;11432;46.924;7.114;2023-04-25T05:16:37;7.00;99.90
22532;DHT22;11432;46.924;7.114;2023-04-25T05:19:03;7.00;99.90
22532;DHT22;11432;46.924;7.114;2023-04-25T05:21:28;7.00;99.90
22532;DHT22;11432;46.924;7.114;2023-04-25T05:23:54;7.10;99.90
22532;DHT22;11432;46.924;7.114;2023-04-25T05:26:19;7.20;99.90
22532;DHT22;11432;46.924;7.114;2023-04-25T05:28:46;7.20;99.90
22532;DHT22;11432;46.924;7.114;2023-04-25T05:31:11;7.20;99.90
22532;DHT22;11432;46.924;7.114;2023-04-25T05:33:37;7.20;99.90
22532;DHT22;11432;46.924;7.114;2023-04-25T05:36:03;7.30;99.90
22532;DHT22;11432;46.924;7.114;2023-04-25T05:38:28;7.30;99.90
22532;DHT22;11432;46.924;7.114;2023-04-25T05:40:55;7.30;99.90
22532;DHT22;11432;46.924;7.114;2023-04-25T05:43:20;7.30;99.90
22532;DHT22;11432;46.924;7.114;2023-04-25T05:45:46;7.30;99.90
22532;DHT22;11432;46.924;7.114;2023-04-25T05:48:12;7.30;99.90
22532;DHT22;11432;46.924;7.114;2023-04-25T05:50:37;7.30;99.90
22532;DHT22;11432;46.924;7.114;2023-04-25T05:53:03;7.40;99.90
22532;DHT22;11432;46.924;7.114;2023-04-25T05:55:31;7.40;99.90
22532;DHT22;11432;46.924;7.114;2023-04-25T05:57:56;7.50;99.90
22532;DHT22;11432;46.924;7.114;2023-04-25T06:00:22;7.50;99.90
22532;DHT22;11432;46.924;7.114;2023-04-25T06:02:48;7.70;99.90
22532;DHT22;11432;46.924;7.114;2023-04-25T06:05:13;7.80;99.90
22532;DHT22;11432;46.924;7.114;2023-04-25T06:07:39;7.90;99.90
22532;DHT22;11432;46.924;7.114;2023-04-25T06:10:06;7.80;99.90
22532;DHT22;11432;46.924;7.114;2023-04-25T06:12:33;7.70;99.90
22532;DHT22;11432;46.924;7.114;2023-04-25T06:14:59;7.70;99.90
22532;DHT22;11432;46.924;7.114;2023-04-25T06:17:25;7.70;99.90
22532;DHT22;11432;46.924;7.114;2023-04-25T06:19:50;7.60;99.90
22532;DHT22;11432;46.924;7.114;2023-04-25T06:22:16;7.50;99.90
22532;DHT22;11432;46.924;7.114;2023-04-25T06:24:42;7.50;99.90
22532;DHT22;11432;46.924;7.114;2023-04-25T06:27:07;7.50;99.90
22532;DHT22;11432;46.924;7.114;2023-04-25T06:29:33;7.70;99.90
22532;DHT22;11432;46.924;7.114;2023-04-25T06:31:58;8.00;99.90
22532;DHT22;11432;46.924;7.114;2023-04-25T06:34:24;8.20;99.90
22532;DHT22;11432;46.924;7.114;2023-04-25T06:36:50;8.40;99.90
22532;DHT22;11432;46.924;7.114;2023-04-25T06:39:15;8.40;99.90
22532;DHT22;11432;46.924;7.114;2023-04-25T06:41:41;8.20;99.90
22532;DHT22;11432;46.924;7.114;2023-04-25T06:44:07;8.20;99.90
22532;DHT22;11432;46.924;7.114;2023-04-25T06:46:32;8.30;99.90
22532;DHT22;11432;46.924;7.114;2023-04-25T06:48:58;8.50;99.90
22532;DHT22;11432;46.924;7.114;2023-04-25T06:51:24;8.40;99.90
22532;DHT22;11432;46.924;7.114;2023-04-25T06:53:49;8.30;99.90
22532;DHT22;11432;46.924;7.114;2023-04-25T06:56:15;7.80;99.90
22532;DHT22;11432;46.924;7.114;2023-04-25T06:58:41;7.50;99.90
22532;DHT22;11432;46.924;7.114;2023-04-25T07:01:07;7.20;99.90
22532;DHT22;11432;46.924;7.114;2023-04-25T07:03:32;7.10;99.90
22532;DHT22;11432;46.924;7.114;2023-04-25T07:05:58;6.90;99.90
22532;DHT22;11432;46.924;7.114;2023-04-25T07:08:23;6.90;99.90
22532;DHT22;11432;46.924;7.114;2023-04-25T07:10:49;6.90;99.90
22532;DHT22;11432;46.924;7.114;2023-04-25T07:13:15;7.00;99.90
22532;DHT22;11432;46.924;7.114;2023-04-25T07:15:40;7.10;99.90
22532;DHT22;11432;46.924;7.114;2023-04-25T07:18:07;7.10;99.90
22532;DHT22;11432;46.924;7.114;2023-04-25T07:20:32;7.00;99.90
22532;DHT22;11432;46.924;7.114;2023-04-25T07:22:58;7.10;99.90
22532;DHT22;11432;46.924;7.114;2023-04-25T07:25:24;7.10;99.90
22532;DHT22;11432;46.924;7.114;2023-04-25T07:27:50;7.20;99.90
22532;DHT22;11432;46.924;7.114;2023-04-25T07:30:15;7.40;99.90
22532;DHT22;11432;46.924;7.114;2023-04-25T07:32:41;7.50;99.90
22532;DHT22;11432;46.924;7.114;2023-04-25T07:35:07;7.50;99.90
22532;DHT22;11432;46.924;7.114;2023-04-25T07:37:34;7.50;99.90
22532;DHT22;11432;46.924;7.114;2023-04-25T07:39:59;7.60;99.90
22532;DHT22;11432;46.924;7.114;2023-04-25T07:42:25;7.90;99.90
22532;DHT22;11432;46.924;7.114;2023-04-25T07:44:50;8.00;99.90
22532;DHT22;11432;46.924;7.114;2023-04-25T07:47:17;8.20;99.90
22532;DHT22;11432;46.924;7.114;2023-04-25T07:49:44;8.40;99.90
22532;DHT22;11432;46.924;7.114;2023-04-25T07:52:11;8.60;99.90
22532;DHT22;11432;46.924;7.114;2023-04-25T07:54:36;8.80;99.90
22532;DHT22;11432;46.924;7.114;2023-04-25T07:57:02;8.90;87.30
22532;DHT22;11432;46.924;7.114;2023-04-25T07:59:28;9.40;99.90
22532;DHT22;11432;46.924;7.114;2023-04-25T08:01:53;9.80;82.10
22532;DHT22;11432;46.924;7.114;2023-04-25T08:04:19;10.00;44.00
22532;DHT22;11432;46.924;7.114;2023-04-25T08:06:45;10.20;35.50
22532;DHT22;11432;46.924;7.114;2023-04-25T08:09:11;9.90;30.80
22532;DHT22;11432;46.924;7.114;2023-04-25T08:11:36;9.90;29.70
22532;DHT22;11432;46.924;7.114;2023-04-25T08:14:02;9.60;1.00
22532;DHT22;11432;46.924;7.114;2023-04-25T08:16:28;9.50;9.00
22532;DHT22;11432;46.924;7.114;2023-04-25T08:18:54;9.40;31.10
22532;DHT22;11432;46.924;7.114;2023-04-25T08:21:19;9.30;28.40
22532;DHT22;11432;46.924;7.114;2023-04-25T08:23:45;9.20;1.00
22532;DHT22;11432;46.924;7.114;2023-04-25T08:26:11;9.20;1.00
22532;DHT22;11432;46.924;7.114;2023-04-25T08:28:37;9.10;1.00
22532;DHT22;11432;46.924;7.114;2023-04-25T08:31:02;9.00;1.00
22532;DHT22;11432;46.924;7.114;2023-04-25T08:33:28;9.10;1.00
22532;DHT22;11432;46.924;7.114;2023-04-25T08:35:54;9.20;1.00
22532;DHT22;11432;46.924;7.114;2023-04-25T08:38:19;9.20;1.00
22532;DHT22;11432;46.924;7.114;2023-04-25T08:40:49;9.10;1.00
22532;DHT22;11432;46.924;7.114;2023-04-25T08:43:19;8.90;1.00
22532;DHT22;11432;46.924;7.114;2023-04-25T08:45:45;8.70;1.00
22532;DHT22;11432;46.924;7.114;2023-04-25T08:48:15;7.50;79.80
22532;DHT22;11432;46.924;7.114;2023-04-25T08:50:52;6.70;99.90
22532;DHT22;11432;46.924;7.114;2023-04-25T08:53:22;6.40;99.90
22532;DHT22;11432;46.924;7.114;2023-04-25T08:55:50;6.30;99.90
22532;DHT22;11432;46.924;7.114;2023-04-25T08:58:18;6.30;99.90
22532;DHT22;11432;46.924;7.114;2023-04-25T09:00:46;6.40;99.90
22532;DHT22;11432;46.924;7.114;2023-04-25T09:03:12;6.60;99.90
22532;DHT22;11432;46.924;7.114;2023-04-25T09:05:40;7.00;99.90
22532;DHT22;11432;46.924;7.114;2023-04-25T09:08:05;7.40;99.90
22532;DHT22;11432;46.924;7.114;2023-04-25T09:10:32;7.80;99.90
22532;DHT22;11432;46.924;7.114;2023-04-25T09:13:10;8.30;99.90
22532;DHT22;11432;46.924;7.114;2023-04-25T09:15:57;8.60;99.90
22532;DHT22;11432;46.924;7.114;2023-04-25T09:18:26;8.60;99.90
22532;DHT22;11432;46.924;7.114;2023-04-25T09:20:56;8.70;99.90
22532;DHT22;11432;46.924;7.114;2023-04-25T09:23:23;8.80;99.90
22532;DHT22;11432;46.924;7.114;2023-04-25T09:25:51;8.90;99.90
22532;DHT22;11432;46.924;7.114;2023-04-25T09:28:23;8.60;48.00
22532;DHT22;11432;46.924;7.114;2023-04-25T09:30:55;8.50;38.10
22532;DHT22;11432;46.924;7.114;2023-04-25T09:33:31;8.50;26.60
22532;DHT22;11432;46.924;7.114;2023-04-25T09:36:10;8.50;36.60
22532;DHT22;11432;46.924;7.114;2023-04-25T09:38:46;8.90;8.40
22532;DHT22;11432;46.924;7.114;2023-04-25T09:41:12;9.60;38.30
22532;DHT22;11432;46.924;7.114;2023-04-25T09:43:38;9.60;16.40
22532;DHT22;11432;46.924;7.114;2023-04-25T09:46:13;9.60;28.50
22532;DHT22;11432;46.924;7.114;2023-04-25T09:48:39;9.50;72.40
22532;DHT22;11432;46.924;7.114;2023-04-25T09:53:24;9.40;25.60
22532;DHT22;11432;46.924;7.114;2023-04-25T09:55:49;9.30;5.50
22532;DHT22;11432;46.924;7.114;2023-04-25T09:58:16;9.50;1.00
22532;DHT22;11432;46.924;7.114;2023-04-25T10:00:42;9.60;1.00
22532;DHT22;11432;46.924;7.114;2023-04-25T10:03:08;10.00;1.00
22532;DHT22;11432;46.924;7.114;2023-04-25T10:05:34;10.00;1.00
22532;DHT22;11432;46.924;7.114;2023-04-25T10:08:03;10.70;1.00
22532;DHT22;11432;46.924;7.114;2023-04-25T10:10:32;11.20;9.80
22532;DHT22;11432;46.924;7.114;2023-04-25T10:13:02;11.00;1.00
22532;DHT22;11432;46.924;7.114;2023-04-25T10:15:28;10.90;1.00
22532;DHT22;11432;46.924;7.114;2023-04-25T10:17:55;10.70;1.00
22532;DHT22;11432;46.924;7.114;2023-04-25T10:20:22;10.70;1.00
22532;DHT22;11432;46.924;7.114;2023-04-25T10:22:48;10.60;1.00
22532;DHT22;11432;46.924;7.114;2023-04-25T10:25:14;10.50;22.90
22532;DHT22;11432;46.924;7.114;2023-04-25T10:27:40;10.40;1.00
22532;DHT22;11432;46.924;7.114;2023-04-25T10:30:13;10.30;1.00
22532;DHT22;11432;46.924;7.114;2023-04-25T10:32:41;10.40;1.00
22532;DHT22;11432;46.924;7.114;2023-04-25T10:35:18;10.40;1.00
22532;DHT22;11432;46.924;7.114;2023-04-25T10:38:09;10.30;1.00
22532;DHT22;11432;46.924;7.114;2023-04-25T10:40:35;10.50;1.00
22532;DHT22;11432;46.924;7.114;2023-04-25T10:46:29;10.50;1.00
22532;DHT22;11432;46.924;7.114;2023-04-25T10:49:02;10.90;1.00
22532;DHT22;11432;46.924;7.114;2023-04-25T10:51:30;11.10;1.00
22532;DHT22;11432;46.924;7.114;2023-04-25T10:54:01;11.00;36.50
22532;DHT22;11432;46.924;7.114;2023-04-25T10:56:37;11.20;1.00
22532;DHT22;11432;46.924;7.114;2023-04-25T10:59:16;11.20;99.90
22532;DHT22;11432;46.924;7.114;2023-04-25T11:01:49;11.00;99.90
22532;DHT22;11432;46.924;7.114;2023-04-25T11:07:03;10.60;99.90
22532;DHT22;11432;46.924;7.114;2023-04-25T11:09:33;10.50;1.00
22532;DHT22;11432;46.924;7.114;2023-04-25T11:11:59;10.40;1.00
22532;DHT22;11432;46.924;7.114;2023-04-25T11:14:26;10.40;1.00
22532;DHT22;11432;46.924;7.114;2023-04-25T11:16:59;10.40;1.00
22532;DHT22;11432;46.924;7.114;2023-04-25T11:19:25;10.50;1.00
22532;DHT22;11432;46.924;7.114;2023-04-25T11:21:55;10.60;1.00
22532;DHT22;11432;46.924;7.114;2023-04-25T11:24:33;10.60;1.00
22532;DHT22;11432;46.924;7.114;2023-04-25T11:27:01;10.50;1.00
22532;DHT22;11432;46.924;7.114;2023-04-25T11:29:31;10.50;1.00
22532;DHT22;11432;46.924;7.114;2023-04-25T11:31:57;10.50;1.00
22532;DHT22;11432;46.924;7.114;2023-04-25T11:34:23;10.60;1.00
22532;DHT22;11432;46.924;7.114;2023-04-25T11:36:51;10.80;1.00
22532;DHT22;11432;46.924;7.114;2023-04-25T11:39:21;10.90;1.00
22532;DHT22;11432;46.924;7.114;2023-04-25T11:41:47;11.00;1.00
22532;DHT22;11432;46.924;7.114;2023-04-25T11:44:16;11.30;1.00
22532;DHT22;11432;46.924;7.114;2023-04-25T11:46:42;11.30;16.50
22532;DHT22;11432;46.924;7.114;2023-04-25T11:49:08;11.10;1.00
22532;DHT22;11432;46.924;7.114;2023-04-25T11:51:44;11.70;1.00
22532;DHT22;11432;46.924;7.114;2023-04-25T11:54:11;12.50;99.90
22532;DHT22;11432;46.924;7.114;2023-04-25T11:56:37;12.70;99.90
22532;DHT22;11432;46.924;7.114;2023-04-25T11:59:06;12.60;99.90
22532;DHT22;11432;46.924;7.114;2023-04-25T12:01:33;12.90;99.90
22532;DHT22;11432;46.924;7.114;2023-04-25T12:04:17;13.30;99.90
22532;DHT22;11432;46.924;7.114;2023-04-25T12:06:44;13.60;99.90
22532;DHT22;11432;46.924;7.114;2023-04-25T12:09:14;14.30;99.90
22532;DHT22;11432;46.924;7.114;2023-04-25T12:14:08;15.20;99.90
22532;DHT22;11432;46.924;7.114;2023-04-25T12:16:44;15.70;99.90
22532;DHT22;11432;46.924;7.114;2023-04-25T12:19:14;15.90;99.90
22532;DHT22;11432;46.924;7.114;2023-04-25T12:21:40;15.70;99.90
22532;DHT22;11432;46.924;7.114;2023-04-25T12:24:17;16.30;99.90
22532;DHT22;11432;46.924;7.114;2023-04-25T12:26:59;16.40;99.90
22532;DHT22;11432;46.924;7.114;2023-04-25T12:29:26;16.60;99.90
22532;DHT22;11432;46.924;7.114;2023-04-25T12:31:53;16.40;99.90
22532;DHT22;11432;46.924;7.114;2023-04-25T12:34:19;16.80;99.90
22532;DHT22;11432;46.924;7.114;2023-04-25T12:36:45;16.90;99.90
22532;DHT22;11432;46.924;7.114;2023-04-25T12:39:22;17.30;99.90
22532;DHT22;11432;46.924;7.114;2023-04-25T12:41:49;17.10;99.20
22532;DHT22;11432;46.924;7.114;2023-04-25T12:44:14;16.40;99.90
22532;DHT22;11432;46.924;7.114;2023-04-25T12:46:40;16.80;99.90
22532;DHT22;11432;46.924;7.114;2023-04-25T12:49:07;17.30;99.90
22532;DHT22;11432;46.924;7.114;2023-04-25T12:51:37;18.00;98.90
22532;DHT22;11432;46.924;7.114;2023-04-25T12:54:04;17.70;96.10
22532;DHT22;11432;46.924;7.114;2023-04-25T12:56:30;18.00;97.00
22532;DHT22;11432;46.924;7.114;2023-04-25T12:58:56;18.10;95.30
22532;DHT22;11432;46.924;7.114;2023-04-25T13:01:23;17.10;97.00
22532;DHT22;11432;46.924;7.114;2023-04-25T13:03:48;16.30;99.90
22532;DHT22;11432;46.924;7.114;2023-04-25T13:06:15;16.80;98.60
22532;DHT22;11432;46.924;7.114;2023-04-25T13:08:41;16.40;97.40
22532;DHT22;11432;46.924;7.114;2023-04-25T13:11:08;15.30;99.90
22532;DHT22;11432;46.924;7.114;2023-04-25T13:13:33;14.60;99.90
22532;DHT22;11432;46.924;7.114;2023-04-25T13:16:06;13.80;99.90
22532;DHT22;11432;46.924;7.114;2023-04-25T13:18:33;13.20;99.90
22532;DHT22;11432;46.924;7.114;2023-04-25T13:20:58;13.20;99.90
22532;DHT22;11432;46.924;7.114;2023-04-25T13:23:28;12.90;99.90
22532;DHT22;11432;46.924;7.114;2023-04-25T13:25:54;12.50;99.90
22532;DHT22;11432;46.924;7.114;2023-04-25T13:28:20;12.30;99.90
22532;DHT22;11432;46.924;7.114;2023-04-25T13:30:47;12.20;99.90
22532;DHT22;11432;46.924;7.114;2023-04-25T13:33:14;11.90;99.90
22532;DHT22;11432;46.924;7.114;2023-04-25T13:35:41;11.80;99.90
22532;DHT22;11432;46.924;7.114;2023-04-25T13:38:07;11.80;99.90
22532;DHT22;11432;46.924;7.114;2023-04-25T13:40:33;11.30;99.90
22532;DHT22;11432;46.924;7.114;2023-04-25T13:42:58;10.80;1.00
22532;DHT22;11432;46.924;7.114;2023-04-25T13:45:24;10.50;1.00
22532;DHT22;11432;46.924;7.114;2023-04-25T13:47:50;10.30;1.00
22532;DHT22;11432;46.924;7.114;2023-04-25T13:50:16;10.30;1.00
22532;DHT22;11432;46.924;7.114;2023-04-25T13:52:42;10.40;1.00
22532;DHT22;11432;46.924;7.114;2023-04-25T13:55:08;10.60;1.00
22532;DHT22;11432;46.924;7.114;2023-04-25T13:57:35;10.90;1.00
22532;DHT22;11432;46.924;7.114;2023-04-25T14:00:03;11.00;1.00
22532;DHT22;11432;46.924;7.114;2023-04-25T14:02:34;11.20;1.00
22532;DHT22;11432;46.924;7.114;2023-04-25T14:05:00;11.30;1.00
22532;DHT22;11432;46.924;7.114;2023-04-25T14:07:26;11.20;99.90
22532;DHT22;11432;46.924;7.114;2023-04-25T14:09:52;11.40;99.90
22532;DHT22;11432;46.924;7.114;2023-04-25T14:12:17;11.60;99.90
22532;DHT22;11432;46.924;7.114;2023-04-25T14:14:43;11.90;99.90
22532;DHT22;11432;46.924;7.114;2023-04-25T14:17:09;13.60;99.90
22532;DHT22;11432;46.924;7.114;2023-04-25T14:19:35;15.70;99.90
22532;DHT22;11432;46.924;7.114;2023-04-25T14:22:01;16.90;99.90
22532;DHT22;11432;46.924;7.114;2023-04-25T14:24:26;16.80;99.90
22532;DHT22;11432;46.924;7.114;2023-04-25T14:26:52;18.20;99.90
22532;DHT22;11432;46.924;7.114;2023-04-25T14:29:17;18.40;96.50
22532;DHT22;11432;46.924;7.114;2023-04-25T14:31:43;17.40;99.40
22532;DHT22;11432;46.924;7.114;2023-04-25T14:34:09;15.70;99.90
22532;DHT22;11432;46.924;7.114;2023-04-25T14:36:35;16.70;99.90
22532;DHT22;11432;46.924;7.114;2023-04-25T14:39:01;18.00;97.70
22532;DHT22;11432;46.924;7.114;2023-04-25T14:41:27;19.00;95.90
22532;DHT22;11432;46.924;7.114;2023-04-25T14:43:52;18.80;92.70
22532;DHT22;11432;46.924;7.114;2023-04-25T14:46:19;19.30;90.70
22532;DHT22;11432;46.924;7.114;2023-04-25T14:48:45;19.90;88.50
22532;DHT22;11432;46.924;7.114;2023-04-25T14:51:12;20.00;85.10
22532;DHT22;11432;46.924;7.114;2023-04-25T14:53:38;19.80;78.40
22532;DHT22;11432;46.924;7.114;2023-04-25T14:56:03;20.20;79.40
22532;DHT22;11432;46.924;7.114;2023-04-25T14:58:30;20.90;69.20
22532;DHT22;11432;46.924;7.114;2023-04-25T15:00:56;20.30;71.20
22532;DHT22;11432;46.924;7.114;2023-04-25T15:03:22;18.80;75.50
22532;DHT22;11432;46.924;7.114;2023-04-25T15:05:48;19.60;72.90
22532;DHT22;11432;46.924;7.114;2023-04-25T15:08:13;19.30;70.70
22532;DHT22;11432;46.924;7.114;2023-04-25T15:10:39;19.70;64.80
22532;DHT22;11432;46.924;7.114;2023-04-25T15:13:04;18.90;67.40
22532;DHT22;11432;46.924;7.114;2023-04-25T15:15:30;19.40;66.50
22532;DHT22;11432;46.924;7.114;2023-04-25T15:17:57;19.40;70.70
22532;DHT22;11432;46.924;7.114;2023-04-25T15:20:23;19.00;64.80
22532;DHT22;11432;46.924;7.114;2023-04-25T15:22:48;19.20;62.00
22532;DHT22;11432;46.924;7.114;2023-04-25T15:25:15;20.00;60.90
22532;DHT22;11432;46.924;7.114;2023-04-25T15:27:44;20.30;56.50
22532;DHT22;11432;46.924;7.114;2023-04-25T15:30:13;21.00;50.10
22532;DHT22;11432;46.924;7.114;2023-04-25T15:32:41;21.40;48.80
22532;DHT22;11432;46.924;7.114;2023-04-25T15:35:07;21.60;47.10
22532;DHT22;11432;46.924;7.114;2023-04-25T15:37:33;20.90;52.00
22532;DHT22;11432;46.924;7.114;2023-04-25T15:40:08;20.60;57.20
22532;DHT22;11432;46.924;7.114;2023-04-25T15:42:38;19.60;63.70
22532;DHT22;11432;46.924;7.114;2023-04-25T15:45:08;20.20;63.60
22532;DHT22;11432;46.924;7.114;2023-04-25T15:47:34;18.00;65.20
22532;DHT22;11432;46.924;7.114;2023-04-25T15:50:00;16.50;70.80
22532;DHT22;11432;46.924;7.114;2023-04-25T15:52:26;15.70;75.40
22532;DHT22;11432;46.924;7.114;2023-04-25T15:54:52;15.20;83.20
22532;DHT22;11432;46.924;7.114;2023-04-25T15:57:18;14.40;92.20